sensor_id;sensor_type;location;lat;lon;timestamp;temperature;humidity
2995;DHT22;35277;49.890;8.222;2022-12-07T00:01:06;21.60;67.10
2995;DHT22;35277;49.890;8.222;2022-12-07T00:03:37;21.50;67.90
2995;DHT22;35277;49.890;8.222;2022-12-07T00:06:07;21.50;67.00
2995;DHT22;35277;49.890;8.222;2022-12-07T00:08:37;21.50;67.00
2995;DHT22;35277;49.890;8.222;2022-12-07T00:11:06;21.60;67.20
2995;DHT22;35277;49.890;8.222;2022-12-07T00:13:35;21.60;67.10
2995;DHT22;35277;49.890;8.222;2022-12-07T00:16:04;21.60;67.10
2995;DHT22;35277;49.890;8.222;2022-12-07T00:18:33;21.60;67.10
2995;DHT22;35277;49.890;8.222;2022-12-07T00:21:01;21.60;67.20
2995;DHT22;35277;49.890;8.222;2022-12-07T00:23:29;21.60;67.10
2995;DHT22;35277;49.890;8.222;2022-12-07T00:26:04;21.60;67.10
2995;DHT22;35277;49.890;8.222;2022-12-07T00:28:33;21.60;67.10
2995;DHT22;35277;49.890;8.222;2022-12-07T00:31:03;21.60;67.10
2995;DHT22;35277;49.890;8.222;2022-12-07T00:33:31;21.60;67.10
2995;DHT22;35277;49.890;8.222;2022-12-07T00:36:00;21.60;67.10
2995;DHT22;35277;49.890;8.222;2022-12-07T00:38:30;21.60;67.10
2995;DHT22;35277;49.890;8.222;2022-12-07T00:41:00;21.60;67.20
2995;DHT22;35277;49.890;8.222;2022-12-07T00:43:29;21.60;67.10
2995;DHT22;35277;49.890;8.222;2022-12-07T00:45:57;21.60;67.20
2995;DHT22;35277;49.890;8.222;2022-12-07T00:48:25;21.60;67.20
2995;DHT22;35277;49.890;8.222;2022-12-07T00:50:53;21.60;67.20
2995;DHT22;35277;49.890;8.222;2022-12-07T00:53:21;21.60;67.20
2995;DHT22;35277;49.890;8.222;2022-12-07T00:55:49;21.60;67.20
2995;DHT22;35277;49.890;8.222;2022-12-07T00:58:17;21.60;67.20
2995;DHT22;35277;49.890;8.222;2022-12-07T01:00:46;21.60;67.20
2995;DHT22;35277;49.890;8.222;2022-12-07T01:03:15;21.60;68.00
2995;DHT22;35277;49.890;8.222;2022-12-07T01:05:49;21.60;67.20
2995;DHT22;35277;49.890;8.222;2022-12-07T01:08:18;21.60;67.20
2995;DHT22;35277;49.890;8.222;2022-12-07T01:10:46;21.60;67.20
2995;DHT22;35277;49.890;8.222;2022-12-07T01:13:14;21.60;67.20
2995;DHT22;35277;49.890;8.222;2022-12-07T01:15:43;21.60;67.30
2995;DHT22;35277;49.890;8.222;2022-12-07T01:18:13;21.50;67.10
2995;DHT22;35277;49.890;8.222;2022-12-07T01:20:41;21.50;67.20
2995;DHT22;35277;49.890;8.222;2022-12-07T01:23:08;21.60;67.20
2995;DHT22;35277;49.890;8.222;2022-12-07T01:25:36;21.60;67.30
2995;DHT22;35277;49.890;8.222;2022-12-07T01:28:04;21.60;67.20
2995;DHT22;35277;49.890;8.222;2022-12-07T01:30:32;21.60;67.20
2995;DHT22;35277;49.890;8.222;2022-12-07T01:32:59;21.60;67.20
2995;DHT22;35277;49.890;8.222;2022-12-07T01:35:28;21.60;67.20
2995;DHT22;35277;49.890;8.222;2022-12-07T01:37:56;21.60;67.20
2995;DHT22;35277;49.890;8.222;2022-12-07T01:40:24;21.60;67.20
2995;DHT22;35277;49.890;8.222;2022-12-07T01:42:52;21.60;67.20
2995;DHT22;35277;49.890;8.222;2022-12-07T01:45:43;21.60;67.20
2995;DHT22;35277;49.890;8.222;2022-12-07T01:48:14;21.60;67.20
2995;DHT22;35277;49.890;8.222;2022-12-07T01:50:45;21.60;67.20
2995;DHT22;35277;49.890;8.222;2022-12-07T01:53:15;21.60;67.20
2995;DHT22;35277;49.890;8.222;2022-12-07T01:55:45;21.60;67.20
2995;DHT22;35277;49.890;8.222;2022-12-07T01:58:15;21.60;67.20
2995;DHT22;35277;49.890;8.222;2022-12-07T02:00:43;21.60;67.20
2995;DHT22;35277;49.890;8.222;2022-12-07T02:03:16;21.60;67.20
2995;DHT22;35277;49.890;8.222;2022-12-07T02:05:47;21.60;67.30
2995;DHT22;35277;49.890;8.222;2022-12-07T02:08:16;21.60;67.20
2995;DHT22;35277;49.890;8.222;2022-12-07T02:10:45;21.60;67.30
2995;DHT22;35277;49.890;8.222;2022-12-07T02:13:15;21.50;67.20
2995;DHT22;35277;49.890;8.222;2022-12-07T02:16:09;21.60;67.30
2995;DHT22;35277;49.890;8.222;2022-12-07T02:18:52;21.60;67.30
2995;DHT22;35277;49.890;8.222;2022-12-07T02:21:31;21.50;67.20
2995;DHT22;35277;49.890;8.222;2022-12-07T02:24:25;21.50;67.30
2995;DHT22;35277;49.890;8.222;2022-12-07T02:27:32;21.50;67.20
2995;DHT22;35277;49.890;8.222;2022-12-07T02:30:04;21.50;67.30
2995;DHT22;35277;49.890;8.222;2022-12-07T02:32:44;21.50;67.30
2995;DHT22;35277;49.890;8.222;2022-12-07T02:35:18;21.60;67.40
2995;DHT22;35277;49.890;8.222;2022-12-07T02:37:57;21.50;67.30
2995;DHT22;35277;49.890;8.222;2022-12-07T02:40:29;21.50;67.30
2995;DHT22;35277;49.890;8.222;2022-12-07T02:43:03;21.50;67.30
2995;DHT22;35277;49.890;8.222;2022-12-07T02:45:34;21.50;67.30
2995;DHT22;35277;49.890;8.222;2022-12-07T02:48:04;21.50;67.30
2995;DHT22;35277;49.890;8.222;2022-12-07T02:50:32;21.50;67.30
2995;DHT22;35277;49.890;8.222;2022-12-07T02:53:00;21.50;67.30
2995;DHT22;35277;49.890;8.222;2022-12-07T02:55:31;21.60;67.40
2995;DHT22;35277;49.890;8.222;2022-12-07T02:58:17;21.60;67.40
2995;DHT22;35277;49.890;8.222;2022-12-07T03:00:58;21.60;67.40
2995;DHT22;35277;49.890;8.222;2022-12-07T03:03:31;21.60;67.40
2995;DHT22;35277;49.890;8.222;2022-12-07T03:06:06;21.60;67.40
2995;DHT22;35277;49.890;8.222;2022-12-07T03:08:46;21.60;67.40
2995;DHT22;35277;49.890;8.222;2022-12-07T03:11:21;21.60;67.50
2995;DHT22;35277;49.890;8.222;2022-12-07T03:13:56;21.60;67.50
2995;DHT22;35277;49.890;8.222;2022-12-07T03:16:31;21.60;67.50
2995;DHT22;35277;49.890;8.222;2022-12-07T03:19:03;21.60;67.50
2995;DHT22;35277;49.890;8.222;2022-12-07T03:21:36;21.60;67.50
2995;DHT22;35277;49.890;8.222;2022-12-07T03:24:10;21.60;67.60
2995;DHT22;35277;49.890;8.222;2022-12-07T03:26:43;21.60;67.50
2995;DHT22;35277;49.890;8.222;2022-12-07T03:29:15;21.60;67.50
2995;DHT22;35277;49.890;8.222;2022-12-07T03:31:47;21.50;67.50
2995;DHT22;35277;49.890;8.222;2022-12-07T03:34:21;21.60;67.50
2995;DHT22;35277;49.890;8.222;2022-12-07T03:36:56;21.60;67.60
2995;DHT22;35277;49.890;8.222;2022-12-07T03:39:29;21.60;67.60
2995;DHT22;35277;49.890;8.222;2022-12-07T03:41:59;21.60;67.60
2995;DHT22;35277;49.890;8.222;2022-12-07T03:44:29;21.50;67.50
2995;DHT22;35277;49.890;8.222;2022-12-07T03:47:01;21.50;67.50
2995;DHT22;35277;49.890;8.222;2022-12-07T03:49:36;21.60;67.60
2995;DHT22;35277;49.890;8.222;2022-12-07T03:52:11;21.50;67.50
2995;DHT22;35277;49.890;8.222;2022-12-07T03:54:45;21.60;67.60
2995;DHT22;35277;49.890;8.222;2022-12-07T03:57:15;21.60;67.60
2995;DHT22;35277;49.890;8.222;2022-12-07T03:59:45;21.50;67.50
2995;DHT22;35277;49.890;8.222;2022-12-07T04:02:15;21.60;67.60
2995;DHT22;35277;49.890;8.222;2022-12-07T04:04:43;21.60;67.60
2995;DHT22;35277;49.890;8.222;2022-12-07T04:07:11;21.60;67.60
2995;DHT22;35277;49.890;8.222;2022-12-07T04:09:39;21.60;67.70
2995;DHT22;35277;49.890;8.222;2022-12-07T04:12:07;21.60;67.60
2995;DHT22;35277;49.890;8.222;2022-12-07T04:14:35;21.60;67.60
2995;DHT22;35277;49.890;8.222;2022-12-07T04:17:03;21.60;67.60
2995;DHT22;35277;49.890;8.222;2022-12-07T04:19:33;21.60;67.60
2995;DHT22;35277;49.890;8.222;2022-12-07T04:22:03;21.60;67.60
2995;DHT22;35277;49.890;8.222;2022-12-07T04:24:32;21.60;67.60
2995;DHT22;35277;49.890;8.222;2022-12-07T04:27:00;21.60;67.60
2995;DHT22;35277;49.890;8.222;2022-12-07T04:29:28;21.60;67.60
2995;DHT22;35277;49.890;8.222;2022-12-07T04:31:56;21.60;67.60
2995;DHT22;35277;49.890;8.222;2022-12-07T04:34:24;21.60;67.60
2995;DHT22;35277;49.890;8.222;2022-12-07T04:36:53;21.60;67.60
2995;DHT22;35277;49.890;8.222;2022-12-07T04:39:22;21.60;67.60
2995;DHT22;35277;49.890;8.222;2022-12-07T04:41:50;21.60;67.70
2995;DHT22;35277;49.890;8.222;2022-12-07T04:44:19;21.60;68.50
2995;DHT22;35277;49.890;8.222;2022-12-07T04:46:47;21.60;67.60
2995;DHT22;35277;49.890;8.222;2022-12-07T04:49:16;21.60;67.60
2995;DHT22;35277;49.890;8.222;2022-12-07T04:51:44;21.60;67.60
2995;DHT22;35277;49.890;8.222;2022-12-07T04:54:14;21.60;67.70
2995;DHT22;35277;49.890;8.222;2022-12-07T04:56:42;21.60;67.60
2995;DHT22;35277;49.890;8.222;2022-12-07T04:59:11;21.60;67.60
2995;DHT22;35277;49.890;8.222;2022-12-07T05:01:39;21.60;67.60
2995;DHT22;35277;49.890;8.222;2022-12-07T05:04:07;21.60;67.60
2995;DHT22;35277;49.890;8.222;2022-12-07T05:06:35;21.60;67.60
2995;DHT22;35277;49.890;8.222;2022-12-07T05:09:03;21.50;67.50
2995;DHT22;35277;49.890;8.222;2022-12-07T05:11:33;21.60;67.60
2995;DHT22;35277;49.890;8.222;2022-12-07T05:14:10;21.50;67.50
2995;DHT22;35277;49.890;8.222;2022-12-07T05:16:38;21.50;67.50
2995;DHT22;35277;49.890;8.222;2022-12-07T05:19:07;21.50;67.40
2995;DHT22;35277;49.890;8.222;2022-12-07T05:21:35;21.50;67.40
2995;DHT22;35277;49.890;8.222;2022-12-07T05:24:04;21.50;67.30
2995;DHT22;35277;49.890;8.222;2022-12-07T05:26:33;21.50;67.30
2995;DHT22;35277;49.890;8.222;2022-12-07T05:29:01;21.50;67.20
2995;DHT22;35277;49.890;8.222;2022-12-07T05:31:29;21.60;67.30
2995;DHT22;35277;49.890;8.222;2022-12-07T05:33:57;21.50;67.10
2995;DHT22;35277;49.890;8.222;2022-12-07T05:36:25;21.50;67.10
2995;DHT22;35277;49.890;8.222;2022-12-07T05:38:55;21.50;67.90
2995;DHT22;35277;49.890;8.222;2022-12-07T05:41:23;21.50;67.00
2995;DHT22;35277;49.890;8.222;2022-12-07T05:44:09;21.50;67.00
2995;DHT22;35277;49.890;8.222;2022-12-07T05:46:37;21.50;66.90
2995;DHT22;35277;49.890;8.222;2022-12-07T05:49:05;21.50;66.90
2995;DHT22;35277;49.890;8.222;2022-12-07T05:51:33;21.50;66.90
2995;DHT22;35277;49.890;8.222;2022-12-07T05:54:00;21.50;66.80
2995;DHT22;35277;49.890;8.222;2022-12-07T05:56:28;21.50;66.80
2995;DHT22;35277;49.890;8.222;2022-12-07T05:58:56;21.50;66.70
2995;DHT22;35277;49.890;8.222;2022-12-07T06:01:43;21.50;66.70
2995;DHT22;35277;49.890;8.222;2022-12-07T06:04:11;21.50;66.60
2995;DHT22;35277;49.890;8.222;2022-12-07T06:06:38;21.50;66.60
2995;DHT22;35277;49.890;8.222;2022-12-07T06:09:06;21.50;66.60
2995;DHT22;35277;49.890;8.222;2022-12-07T06:11:34;21.50;66.50
2995;DHT22;35277;49.890;8.222;2022-12-07T06:14:20;21.50;66.50
2995;DHT22;35277;49.890;8.222;2022-12-07T06:16:49;21.50;66.50
2995;DHT22;35277;49.890;8.222;2022-12-07T06:19:17;21.50;66.40
2995;DHT22;35277;49.890;8.222;2022-12-07T06:21:45;21.50;66.40
2995;DHT22;35277;49.890;8.222;2022-12-07T06:24:14;21.50;66.40
2995;DHT22;35277;49.890;8.222;2022-12-07T06:26:43;21.50;66.80
2995;DHT22;35277;49.890;8.222;2022-12-07T06:29:11;21.50;67.40
2995;DHT22;35277;49.890;8.222;2022-12-07T06:31:39;21.50;67.70
2995;DHT22;35277;49.890;8.222;2022-12-07T06:34:10;21.50;67.80
2995;DHT22;35277;49.890;8.222;2022-12-07T06:36:38;21.60;68.00
2995;DHT22;35277;49.890;8.222;2022-12-07T06:39:07;21.60;68.10
2995;DHT22;35277;49.890;8.222;2022-12-07T06:41:35;21.60;68.10
2995;DHT22;35277;49.890;8.222;2022-12-07T06:44:03;21.60;68.10
2995;DHT22;35277;49.890;8.222;2022-12-07T06:46:31;21.60;68.20
2995;DHT22;35277;49.890;8.222;2022-12-07T06:48:59;21.60;68.30
2995;DHT22;35277;49.890;8.222;2022-12-07T06:51:28;21.60;68.30
2995;DHT22;35277;49.890;8.222;2022-12-07T06:53:56;21.60;68.30
2995;DHT22;35277;49.890;8.222;2022-12-07T06:56:24;21.60;68.30
2995;DHT22;35277;49.890;8.222;2022-12-07T06:58:52;21.60;68.20
2995;DHT22;35277;49.890;8.222;2022-12-07T07:01:20;21.60;68.20
2995;DHT22;35277;49.890;8.222;2022-12-07T07:03:48;21.60;68.10
2995;DHT22;35277;49.890;8.222;2022-12-07T07:06:15;21.60;68.00
2995;DHT22;35277;49.890;8.222;2022-12-07T07:08:44;21.60;68.00
2995;DHT22;35277;49.890;8.222;2022-12-07T07:11:12;21.60;68.00
2995;DHT22;35277;49.890;8.222;2022-12-07T07:13:40;21.60;67.90
2995;DHT22;35277;49.890;8.222;2022-12-07T07:16:08;21.60;67.80
2995;DHT22;35277;49.890;8.222;2022-12-07T07:18:37;21.60;67.80
2995;DHT22;35277;49.890;8.222;2022-12-07T07:21:05;21.60;67.70
2995;DHT22;35277;49.890;8.222;2022-12-07T07:23:32;21.60;67.70
2995;DHT22;35277;49.890;8.222;2022-12-07T07:26:02;21.60;67.60
2995;DHT22;35277;49.890;8.222;2022-12-07T07:28:29;21.60;67.60
2995;DHT22;35277;49.890;8.222;2022-12-07T07:30:57;21.60;67.50
2995;DHT22;35277;49.890;8.222;2022-12-07T07:33:25;21.60;67.50
2995;DHT22;35277;49.890;8.222;2022-12-07T07:35:53;21.60;67.50
2995;DHT22;35277;49.890;8.222;2022-12-07T07:38:20;21.60;67.40
2995;DHT22;35277;49.890;8.222;2022-12-07T07:40:48;21.60;67.40
2995;DHT22;35277;49.890;8.222;2022-12-07T07:43:17;21.60;67.30
2995;DHT22;35277;49.890;8.222;2022-12-07T07:45:45;21.60;67.30
2995;DHT22;35277;49.890;8.222;2022-12-07T07:48:13;21.60;67.30
2995;DHT22;35277;49.890;8.222;2022-12-07T07:50:41;21.60;67.20
2995;DHT22;35277;49.890;8.222;2022-12-07T07:53:09;21.60;67.20
2995;DHT22;35277;49.890;8.222;2022-12-07T07:55:36;21.60;68.00
2995;DHT22;35277;49.890;8.222;2022-12-07T07:58:04;21.60;67.10
2995;DHT22;35277;49.890;8.222;2022-12-07T08:00:33;21.60;67.10
2995;DHT22;35277;49.890;8.222;2022-12-07T08:03:01;21.60;67.00
2995;DHT22;35277;49.890;8.222;2022-12-07T08:05:29;21.60;67.00
2995;DHT22;35277;49.890;8.222;2022-12-07T08:07:57;21.60;67.00
2995;DHT22;35277;49.890;8.222;2022-12-07T08:10:25;21.60;67.00
2995;DHT22;35277;49.890;8.222;2022-12-07T08:12:53;21.60;66.90
2995;DHT22;35277;49.890;8.222;2022-12-07T08:15:43;21.60;66.90
2995;DHT22;35277;49.890;8.222;2022-12-07T08:18:12;21.60;66.90
2995;DHT22;35277;49.890;8.222;2022-12-07T08:20:40;21.60;66.80
2995;DHT22;35277;49.890;8.222;2022-12-07T08:23:09;21.60;66.80
2995;DHT22;35277;49.890;8.222;2022-12-07T08:25:37;21.60;66.80
2995;DHT22;35277;49.890;8.222;2022-12-07T08:28:05;21.60;66.70
2995;DHT22;35277;49.890;8.222;2022-12-07T08:30:33;21.60;66.70
2995;DHT22;35277;49.890;8.222;2022-12-07T08:33:02;21.60;66.60
2995;DHT22;35277;49.890;8.222;2022-12-07T08:35:32;21.60;66.60
2995;DHT22;35277;49.890;8.222;2022-12-07T08:38:00;21.60;66.50
2995;DHT22;35277;49.890;8.222;2022-12-07T08:40:29;21.60;66.50
2995;DHT22;35277;49.890;8.222;2022-12-07T08:42:56;21.60;66.40
2995;DHT22;35277;49.890;8.222;2022-12-07T08:45:24;21.60;66.40
2995;DHT22;35277;49.890;8.222;2022-12-07T08:47:58;21.60;66.40
2995;DHT22;35277;49.890;8.222;2022-12-07T08:50:29;21.60;66.40
2995;DHT22;35277;49.890;8.222;2022-12-07T08:52:58;21.60;66.30
2995;DHT22;35277;49.890;8.222;2022-12-07T08:55:27;21.60;66.30
2995;DHT22;35277;49.890;8.222;2022-12-07T08:57:55;21.60;66.30
2995;DHT22;35277;49.890;8.222;2022-12-07T09:00:24;21.60;66.30
2995;DHT22;35277;49.890;8.222;2022-12-07T09:02:53;21.60;66.20
2995;DHT22;35277;49.890;8.222;2022-12-07T09:05:21;21.60;66.10
2995;DHT22;35277;49.890;8.222;2022-12-07T09:07:54;21.60;66.90
2995;DHT22;35277;49.890;8.222;2022-12-07T09:10:23;21.60;66.00
2995;DHT22;35277;49.890;8.222;2022-12-07T09:12:51;21.60;66.00
2995;DHT22;35277;49.890;8.222;2022-12-07T09:15:19;21.60;66.00
2995;DHT22;35277;49.890;8.222;2022-12-07T09:17:46;21.60;65.90
2995;DHT22;35277;49.890;8.222;2022-12-07T09:20:14;21.60;65.90
2995;DHT22;35277;49.890;8.222;2022-12-07T09:22:42;21.60;65.90
2995;DHT22;35277;49.890;8.222;2022-12-07T09:25:11;21.60;65.90
2995;DHT22;35277;49.890;8.222;2022-12-07T09:27:39;21.60;65.80
2995;DHT22;35277;49.890;8.222;2022-12-07T09:30:07;21.60;65.80
2995;DHT22;35277;49.890;8.222;2022-12-07T09:32:35;21.60;65.80
2995;DHT22;35277;49.890;8.222;2022-12-07T09:35:03;21.60;65.70
2995;DHT22;35277;49.890;8.222;2022-12-07T09:37:31;21.60;65.70
2995;DHT22;35277;49.890;8.222;2022-12-07T09:40:02;21.60;65.60
2995;DHT22;35277;49.890;8.222;2022-12-07T09:42:34;21.60;65.60
2995;DHT22;35277;49.890;8.222;2022-12-07T09:45:05;21.60;65.60
2995;DHT22;35277;49.890;8.222;2022-12-07T09:47:33;21.60;65.50
2995;DHT22;35277;49.890;8.222;2022-12-07T09:50:04;21.60;65.50
2995;DHT22;35277;49.890;8.222;2022-12-07T09:52:33;21.60;65.40
2995;DHT22;35277;49.890;8.222;2022-12-07T09:55:10;21.60;65.40
2995;DHT22;35277;49.890;8.222;2022-12-07T09:57:40;21.60;65.30
2995;DHT22;35277;49.890;8.222;2022-12-07T10:00:12;21.60;65.30
2995;DHT22;35277;49.890;8.222;2022-12-07T10:02:42;21.60;65.20
2995;DHT22;35277;49.890;8.222;2022-12-07T10:05:13;21.70;65.30
2995;DHT22;35277;49.890;8.222;2022-12-07T10:07:49;21.70;65.30
2995;DHT22;35277;49.890;8.222;2022-12-07T10:10:20;21.70;65.30
2995;DHT22;35277;49.890;8.222;2022-12-07T10:12:56;21.70;65.20
2995;DHT22;35277;49.890;8.222;2022-12-07T10:15:41;21.70;65.20
2995;DHT22;35277;49.890;8.222;2022-12-07T10:18:30;21.70;65.10
2995;DHT22;35277;49.890;8.222;2022-12-07T10:21:14;21.70;65.10
2995;DHT22;35277;49.890;8.222;2022-12-07T10:23:59;21.70;65.10
2995;DHT22;35277;49.890;8.222;2022-12-07T10:26:30;21.70;65.10
2995;DHT22;35277;49.890;8.222;2022-12-07T10:29:01;21.70;65.10
2995;DHT22;35277;49.890;8.222;2022-12-07T10:31:30;21.70;65.10
2995;DHT22;35277;49.890;8.222;2022-12-07T10:33:59;21.70;65.10
2995;DHT22;35277;49.890;8.222;2022-12-07T10:36:35;21.70;65.20
2995;DHT22;35277;49.890;8.222;2022-12-07T10:39:11;21.70;65.20
2995;DHT22;35277;49.890;8.222;2022-12-07T10:41:53;21.70;65.50
2995;DHT22;35277;49.890;8.222;2022-12-07T10:44:26;21.70;65.40
2995;DHT22;35277;49.890;8.222;2022-12-07T10:47:09;21.80;65.60
2995;DHT22;35277;49.890;8.222;2022-12-07T10:52:45;21.80;66.30
2995;DHT22;35277;49.890;8.222;2022-12-07T10:55:21;21.90;66.60
2995;DHT22;35277;49.890;8.222;2022-12-07T10:58:14;21.90;66.90
2995;DHT22;35277;49.890;8.222;2022-12-07T11:00:52;21.90;67.00
2995;DHT22;35277;49.890;8.222;2022-12-07T11:03:49;21.90;67.00
2995;DHT22;35277;49.890;8.222;2022-12-07T11:06:27;22.00;67.00
2995;DHT22;35277;49.890;8.222;2022-12-07T11:09:04;21.90;66.60
2995;DHT22;35277;49.890;8.222;2022-12-07T11:11:44;21.90;66.60
2995;DHT22;35277;49.890;8.222;2022-12-07T11:14:21;21.90;66.50
2995;DHT22;35277;49.890;8.222;2022-12-07T11:16:55;21.90;66.40
2995;DHT22;35277;49.890;8.222;2022-12-07T11:19:34;21.90;66.20
2995;DHT22;35277;49.890;8.222;2022-12-07T11:22:14;22.00;66.20
2995;DHT22;35277;49.890;8.222;2022-12-07T11:24:49;22.00;65.90
2995;DHT22;35277;49.890;8.222;2022-12-07T11:27:24;22.00;65.50
2995;DHT22;35277;49.890;8.222;2022-12-07T11:30:10;22.00;65.20
2995;DHT22;35277;49.890;8.222;2022-12-07T11:32:59;22.00;64.90
2995;DHT22;35277;49.890;8.222;2022-12-07T11:35:39;21.90;64.70
2995;DHT22;35277;49.890;8.222;2022-12-07T11:38:11;21.90;64.70
2995;DHT22;35277;49.890;8.222;2022-12-07T11:40:43;21.90;64.60
2995;DHT22;35277;49.890;8.222;2022-12-07T11:43:20;22.00;64.70
2995;DHT22;35277;49.890;8.222;2022-12-07T11:45:54;22.00;64.70
2995;DHT22;35277;49.890;8.222;2022-12-07T11:48:31;22.00;64.60
2995;DHT22;35277;49.890;8.222;2022-12-07T11:51:01;22.00;64.70
2995;DHT22;35277;49.890;8.222;2022-12-07T11:53:35;22.00;64.70
2995;DHT22;35277;49.890;8.222;2022-12-07T11:56:08;22.00;64.70
2995;DHT22;35277;49.890;8.222;2022-12-07T11:58:48;22.00;64.70
2995;DHT22;35277;49.890;8.222;2022-12-07T12:01:35;22.00;64.80
2995;DHT22;35277;49.890;8.222;2022-12-07T12:04:16;22.00;64.80
2995;DHT22;35277;49.890;8.222;2022-12-07T12:06:47;22.00;64.80
2995;DHT22;35277;49.890;8.222;2022-12-07T12:09:17;22.00;64.90
2995;DHT22;35277;49.890;8.222;2022-12-07T12:15:33;22.00;65.00
2995;DHT22;35277;49.890;8.222;2022-12-07T12:18:17;22.00;65.10
2995;DHT22;35277;49.890;8.222;2022-12-07T12:20:51;22.00;65.20
2995;DHT22;35277;49.890;8.222;2022-12-07T12:23:26;22.00;65.20
2995;DHT22;35277;49.890;8.222;2022-12-07T12:25:57;22.00;65.30
2995;DHT22;35277;49.890;8.222;2022-12-07T12:28:29;22.00;65.30
2995;DHT22;35277;49.890;8.222;2022-12-07T12:31:12;22.00;65.30
2995;DHT22;35277;49.890;8.222;2022-12-07T12:33:44;21.90;65.30
2995;DHT22;35277;49.890;8.222;2022-12-07T12:36:21;21.90;65.20
2995;DHT22;35277;49.890;8.222;2022-12-07T12:38:51;21.90;65.30
2995;DHT22;35277;49.890;8.222;2022-12-07T12:41:56;21.90;65.30
2995;DHT22;35277;49.890;8.222;2022-12-07T12:47:57;21.90;65.30
2995;DHT22;35277;49.890;8.222;2022-12-07T12:50:30;21.90;65.40
2995;DHT22;35277;49.890;8.222;2022-12-07T12:53:02;21.90;65.40
2995;DHT22;35277;49.890;8.222;2022-12-07T12:58:39;21.90;65.40
2995;DHT22;35277;49.890;8.222;2022-12-07T13:04:39;21.90;65.40
2995;DHT22;35277;49.890;8.222;2022-12-07T13:10:38;21.90;65.40
2995;DHT22;35277;49.890;8.222;2022-12-07T13:13:31;21.90;65.40
2995;DHT22;35277;49.890;8.222;2022-12-07T13:16:36;21.90;63.60
2995;DHT22;35277;49.890;8.222;2022-12-07T13:22:40;21.50;61.70
2995;DHT22;35277;49.890;8.222;2022-12-07T13:25:12;21.50;61.90
2995;DHT22;35277;49.890;8.222;2022-12-07T13:27:43;21.40;61.80
2995;DHT22;35277;49.890;8.222;2022-12-07T13:30:17;21.40;61.70
2995;DHT22;35277;49.890;8.222;2022-12-07T13:32:52;21.40;61.60
2995;DHT22;35277;49.890;8.222;2022-12-07T13:35:31;21.40;61.60
2995;DHT22;35277;49.890;8.222;2022-12-07T13:38:02;21.40;61.60
2995;DHT22;35277;49.890;8.222;2022-12-07T13:40:31;21.50;61.70
2995;DHT22;35277;49.890;8.222;2022-12-07T13:43:01;21.50;61.80
2995;DHT22;35277;49.890;8.222;2022-12-07T13:45:31;21.50;61.70
2995;DHT22;35277;49.890;8.222;2022-12-07T13:48:24;21.60;61.80
2995;DHT22;35277;49.890;8.222;2022-12-07T13:50:56;21.60;61.80
2995;DHT22;35277;49.890;8.222;2022-12-07T13:53:25;21.60;61.90
2995;DHT22;35277;49.890;8.222;2022-12-07T13:55:57;21.60;62.30
2995;DHT22;35277;49.890;8.222;2022-12-07T13:58:29;21.60;62.00
2995;DHT22;35277;49.890;8.222;2022-12-07T14:00:58;21.70;62.20
2995;DHT22;35277;49.890;8.222;2022-12-07T14:03:29;21.70;62.30
2995;DHT22;35277;49.890;8.222;2022-12-07T14:06:14;21.70;62.40
2995;DHT22;35277;49.890;8.222;2022-12-07T14:08:43;21.70;62.40
2995;DHT22;35277;49.890;8.222;2022-12-07T14:11:16;21.80;62.50
2995;DHT22;35277;49.890;8.222;2022-12-07T14:13:55;21.80;62.50
2995;DHT22;35277;49.890;8.222;2022-12-07T14:16:26;21.80;62.50
2995;DHT22;35277;49.890;8.222;2022-12-07T14:18:56;21.90;62.60
2995;DHT22;35277;49.890;8.222;2022-12-07T14:21:26;21.90;62.70
2995;DHT22;35277;49.890;8.222;2022-12-07T14:24:14;21.90;62.70
2995;DHT22;35277;49.890;8.222;2022-12-07T14:26:45;21.80;62.70
2995;DHT22;35277;49.890;8.222;2022-12-07T14:29:27;21.80;62.70
2995;DHT22;35277;49.890;8.222;2022-12-07T14:31:57;21.80;62.70
2995;DHT22;35277;49.890;8.222;2022-12-07T14:34:26;21.80;62.70
2995;DHT22;35277;49.890;8.222;2022-12-07T14:36:54;21.80;62.80
2995;DHT22;35277;49.890;8.222;2022-12-07T14:39:21;21.80;62.90
2995;DHT22;35277;49.890;8.222;2022-12-07T14:41:49;21.80;62.90
2995;DHT22;35277;49.890;8.222;2022-12-07T14:44:22;21.80;62.90
2995;DHT22;35277;49.890;8.222;2022-12-07T14:46:59;21.80;62.90
2995;DHT22;35277;49.890;8.222;2022-12-07T14:49:47;21.80;62.90
2995;DHT22;35277;49.890;8.222;2022-12-07T14:52:17;21.80;62.90
2995;DHT22;35277;49.890;8.222;2022-12-07T14:55:13;21.80;63.00
2995;DHT22;35277;49.890;8.222;2022-12-07T14:57:41;21.80;63.00
2995;DHT22;35277;49.890;8.222;2022-12-07T15:00:15;21.80;63.00
2995;DHT22;35277;49.890;8.222;2022-12-07T15:02:44;21.80;63.00
2995;DHT22;35277;49.890;8.222;2022-12-07T15:05:12;21.80;63.10
2995;DHT22;35277;49.890;8.222;2022-12-07T15:07:42;21.80;63.00
2995;DHT22;35277;49.890;8.222;2022-12-07T15:10:15;21.80;63.10
2995;DHT22;35277;49.890;8.222;2022-12-07T15:12:50;21.80;63.10
2995;DHT22;35277;49.890;8.222;2022-12-07T15:15:19;21.80;63.10
2995;DHT22;35277;49.890;8.222;2022-12-07T15:17:47;21.80;63.10
2995;DHT22;35277;49.890;8.222;2022-12-07T15:20:15;21.80;63.20
2995;DHT22;35277;49.890;8.222;2022-12-07T15:22:44;21.80;63.30
2995;DHT22;35277;49.890;8.222;2022-12-07T15:25:13;21.80;63.60
2995;DHT22;35277;49.890;8.222;2022-12-07T15:27:41;21.80;63.70
2995;DHT22;35277;49.890;8.222;2022-12-07T15:30:09;21.80;63.70
2995;DHT22;35277;49.890;8.222;2022-12-07T15:32:38;21.80;63.70
2995;DHT22;35277;49.890;8.222;2022-12-07T15:35:07;21.70;63.70
2995;DHT22;35277;49.890;8.222;2022-12-07T15:37:35;21.70;63.80
2995;DHT22;35277;49.890;8.222;2022-12-07T15:40:03;21.70;63.90
2995;DHT22;35277;49.890;8.222;2022-12-07T15:45:02;21.70;64.00
2995;DHT22;35277;49.890;8.222;2022-12-07T15:47:35;21.70;64.10
2995;DHT22;35277;49.890;8.222;2022-12-07T15:50:25;21.70;64.10
2995;DHT22;35277;49.890;8.222;2022-12-07T15:52:53;21.70;64.20
2995;DHT22;35277;49.890;8.222;2022-12-07T15:55:21;21.70;64.30
2995;DHT22;35277;49.890;8.222;2022-12-07T15:57:49;21.70;64.30
2995;DHT22;35277;49.890;8.222;2022-12-07T16:00:18;21.70;64.40
2995;DHT22;35277;49.890;8.222;2022-12-07T16:02:46;21.70;64.50
2995;DHT22;35277;49.890;8.222;2022-12-07T16:05:14;21.70;64.50
2995;DHT22;35277;49.890;8.222;2022-12-07T16:07:43;21.70;64.50
2995;DHT22;35277;49.890;8.222;2022-12-07T16:10:13;21.70;64.50
2995;DHT22;35277;49.890;8.222;2022-12-07T16:12:41;21.70;64.50
2995;DHT22;35277;49.890;8.222;2022-12-07T16:15:09;21.70;64.60
2995;DHT22;35277;49.890;8.222;2022-12-07T16:17:37;21.70;64.60
2995;DHT22;35277;49.890;8.222;2022-12-07T16:20:06;21.70;64.60
2995;DHT22;35277;49.890;8.222;2022-12-07T16:22:35;21.70;64.60
2995;DHT22;35277;49.890;8.222;2022-12-07T16:25:05;21.70;64.70
2995;DHT22;35277;49.890;8.222;2022-12-07T16:27:33;21.70;64.70
2995;DHT22;35277;49.890;8.222;2022-12-07T16:30:01;21.70;64.70
2995;DHT22;35277;49.890;8.222;2022-12-07T16:32:29;21.70;64.80
2995;DHT22;35277;49.890;8.222;2022-12-07T16:34:57;21.70;64.80
2995;DHT22;35277;49.890;8.222;2022-12-07T16:37:25;21.70;64.80
2995;DHT22;35277;49.890;8.222;2022-12-07T16:39:52;21.70;64.90